Time;durP1;ratioP1;P1;durP2;ratioP2;P2;SDS_P1;SDS_P2;PMS_P1;PMS_P2;Temp;Humidity;BMP_temperature;BMP_pressure;BME280_temperature;BME280_humidity;BME280_pressure;Samples;Min_cycle;Max_cycle;Signal;HPM_P1;HPM_P2
2021/12/27 00:02:08;;;;;;;76.25;35.08;;;6.10;99.90;;;;;;5079472;28;20112;-76
2021/12/27 00:04:34;;;;;;;82.72;36.22;;;6.10;99.90;;;;;;5084577;28;20043;-76
2021/12/27 00:06:59;;;;;;;79.57;33.80;;;6.10;99.90;;;;;;5083434;28;20123;-76
2021/12/27 00:09:25;;;;;;;81.28;34.58;;;6.10;99.90;;;;;;5084001;28;20025;-76
2021/12/27 00:11:50;;;;;;;74.88;34.15;;;6.10;99.90;;;;;;5089043;28;20455;-76
2021/12/27 00:14:16;;;;;;;85.85;37.22;;;6.20;99.90;;;;;;5085702;28;20082;-76
2021/12/27 00:16:42;;;;;;;82.05;34.85;;;6.10;99.90;;;;;;5083292;28;20027;-77
2021/12/27 00:19:10;;;;;;;98.70;38.35;;;6.20;99.90;;;;;;5086998;28;20031;-76
2021/12/27 00:21:35;;;;;;;95.93;39.22;;;6.20;99.90;;;;;;5084762;28;20025;-75
2021/12/27 00:24:01;;;;;;;166.43;57.38;;;6.20;99.90;;;;;;5084751;28;20031;-76
2021/12/27 00:26:27;;;;;;;173.88;61.80;;;6.20;99.90;;;;;;5084358;28;20060;-75
2021/12/27 00:28:52;;;;;;;182.70;62.22;;;6.20;99.90;;;;;;5085669;28;20062;-75
2021/12/27 00:31:18;;;;;;;170.20;62.83;;;6.20;99.90;;;;;;5080006;28;20020;-75
2021/12/27 00:33:44;;;;;;;198.20;69.68;;;6.20;99.90;;;;;;5085352;28;20082;-75
2021/12/27 00:36:09;;;;;;;201.20;68.00;;;6.20;99.90;;;;;;5086028;28;20036;-75
2021/12/27 00:38:35;;;;;;;211.55;77.40;;;6.10;99.90;;;;;;5082695;28;20023;-75
2021/12/27 00:41:00;;;;;;;210.25;79.68;;;6.20;99.90;;;;;;5092130;28;20024;-75
2021/12/27 00:43:26;;;;;;;309.30;107.80;;;6.20;99.90;;;;;;5082349;28;20035;-75
2021/12/27 00:45:52;;;;;;;342.65;144.80;;;6.20;99.90;;;;;;5082387;28;20027;-75
2021/12/27 00:48:18;;;;;;;441.88;180.27;;;6.10;99.90;;;;;;5077581;28;20028;-75
2021/12/27 00:50:45;;;;;;;403.65;162.30;;;6.10;99.90;;;;;;5086306;28;20021;-75
2021/12/27 00:53:11;;;;;;;413.20;172.68;;;6.20;99.90;;;;;;5080181;28;20639;-75
2021/12/27 00:55:37;;;;;;;246.13;107.30;;;6.20;99.90;;;;;;5080357;28;20123;-75
2021/12/27 00:58:02;;;;;;;282.73;124.65;;;6.20;99.90;;;;;;5081777;28;20410;-75
2021/12/27 01:00:28;;;;;;;282.27;113.32;;;6.20;99.90;;;;;;5078879;28;20499;-75
2021/12/27 01:02:55;;;;;;;206.50;86.53;;;6.30;99.90;;;;;;5083944;28;20024;-75
2021/12/27 01:05:23;;;;;;;604.38;209.38;;;6.30;99.90;;;;;;5086395;28;20024;-75
2021/12/27 01:07:48;;;;;;;252.98;104.35;;;6.20;99.90;;;;;;5081166;28;20551;-76
2021/12/27 01:10:59;;;;;;;171.55;70.38;;;6.30;99.90;;;;;;5076125;28;20040;-76
2021/12/27 01:16:10;;;;;;;86.60;37.22;;;6.30;99.90;;;;;;5091537;28;20396;-76
2021/12/27 01:18:42;;;;;;;80.50;34.87;;;6.30;99.90;;;;;;5083584;28;20422;-76
2021/12/27 01:21:08;;;;;;;123.95;44.75;;;6.30;99.90;;;;;;5078874;28;20025;-76
2021/12/27 01:23:34;;;;;;;94.28;39.50;;;6.30;99.90;;;;;;5084829;28;20027;-76
2021/12/27 01:26:00;;;;;;;86.85;34.88;;;6.30;99.90;;;;;;5079096;28;20008;-76
2021/12/27 01:28:26;;;;;;;101.30;38.97;;;6.20;99.90;;;;;;5085677;28;20031;-75
2021/12/27 01:30:52;;;;;;;93.20;39.20;;;6.20;99.90;;;;;;5079470;28;20028;-75
2021/12/27 01:33:23;;;;;;;85.10;36.20;;;6.30;99.90;;;;;;5081729;28;20027;-75
2021/12/27 01:35:49;;;;;;;100.97;37.60;;;6.30;99.90;;;;;;5082868;28;20031;-75
2021/12/27 01:38:15;;;;;;;101.15;39.00;;;6.30;99.90;;;;;;5084082;28;20099;-76
2021/12/27 01:40:43;;;;;;;104.85;38.97;;;6.40;99.90;;;;;;5082373;28;20169;-75
2021/12/27 01:43:11;;;;;;;113.45;39.28;;;6.40;99.90;;;;;;5081010;28;20027;-75
2021/12/27 01:45:59;;;;;;;132.57;42.55;;;6.40;99.90;;;;;;5084747;28;20202;-75
2021/12/27 01:48:29;;;;;;;114.38;40.45;;;6.40;99.90;;;;;;5081265;28;20023;-75
2021/12/27 01:50:57;;;;;;;109.72;40.03;;;6.40;99.90;;;;;;5078831;28;20025;-75
2021/12/27 01:53:25;;;;;;;102.43;38.30;;;6.30;99.90;;;;;;5080860;28;20024;-76
2021/12/27 01:55:52;;;;;;;102.97;36.67;;;6.40;99.90;;;;;;5078746;28;20524;-75
2021/12/27 01:58:20;;;;;;;121.47;40.60;;;6.50;99.90;;;;;;5076640;28;20104;-75
2021/12/27 02:00:49;;;;;;;106.35;38.55;;;6.40;99.90;;;;;;5078471;28;20031;-75
2021/12/27 02:03:16;;;;;;;106.75;38.70;;;6.40;99.90;;;;;;5077439;28;20031;-75
2021/12/27 02:05:43;;;;;;;112.18;40.72;;;6.40;99.90;;;;;;5081235;28;20373;-76
2021/12/27 02:08:09;;;;;;;103.80;38.28;;;6.40;99.90;;;;;;5084863;28;20052;-75
2021/12/27 02:10:35;;;;;;;112.75;39.15;;;6.40;99.90;;;;;;5084993;28;20020;-75
2021/12/27 02:13:01;;;;;;;130.20;40.67;;;6.50;99.90;;;;;;5079222;28;20031;-75
2021/12/27 02:15:27;;;;;;;141.90;43.75;;;6.50;99.90;;;;;;5081084;28;20476;-75
2021/12/27 02:17:54;;;;;;;116.00;39.90;;;6.40;99.90;;;;;;5077815;28;20498;-75
2021/12/27 02:20:27;;;;;;;95.25;36.45;;;6.40;99.90;;;;;;5077273;28;20023;-75
2021/12/27 02:22:59;;;;;;;95.13;36.80;;;6.40;99.90;;;;;;5078213;28;20028;-76
2021/12/27 02:25:25;;;;;;;97.55;38.83;;;6.50;99.90;;;;;;5084402;28;20040;-76
2021/12/27 02:27:51;;;;;;;98.10;37.03;;;6.50;99.90;;;;;;5077572;28;20107;-75
2021/12/27 02:30:18;;;;;;;113.03;40.22;;;6.50;99.90;;;;;;5078810;28;20111;-75
2021/12/27 02:32:46;;;;;;;105.57;38.28;;;6.50;99.90;;;;;;5078179;28;20032;-75
2021/12/27 02:35:26;;;;;;;100.63;36.95;;;6.50;99.90;;;;;;5081663;28;20064;-75
2021/12/27 02:37:53;;;;;;;96.90;35.72;;;6.50;99.90;;;;;;5079042;28;20039;-75
2021/12/27 02:40:20;;;;;;;96.32;36.83;;;6.50;99.90;;;;;;5080190;28;20030;-75
2021/12/27 02:42:54;;;;;;;116.43;40.65;;;6.50;99.90;;;;;;5082126;28;20046;-75
2021/12/27 02:45:20;;;;;;;107.32;38.50;;;6.50;99.90;;;;;;5081896;28;20024;-75
2021/12/27 02:47:46;;;;;;;100.55;37.50;;;6.50;99.90;;;;;;5079452;28;20074;-74
2021/12/27 02:50:12;;;;;;;115.32;39.10;;;6.50;99.90;;;;;;5082145;28;20036;-75
2021/12/27 02:52:38;;;;;;;113.60;39.72;;;6.50;99.90;;;;;;5080458;28;20058;-74
2021/12/27 02:55:04;;;;;;;106.65;37.25;;;6.50;99.90;;;;;;5078909;28;20480;-75
2021/12/27 02:57:29;;;;;;;199.52;48.63;;;6.50;99.90;;;;;;5084529;28;20464;-75
2021/12/27 02:59:57;;;;;;;120.05;41.95;;;6.50;99.90;;;;;;5079671;28;20035;-75
2021/12/27 03:02:23;;;;;;;93.63;37.75;;;6.50;99.90;;;;;;5079890;28;20032;-75
2021/12/27 03:04:49;;;;;;;116.07;40.90;;;6.50;99.90;;;;;;5078123;28;20032;-75
2021/12/27 03:07:15;;;;;;;113.03;40.50;;;6.50;99.90;;;;;;5079445;28;20153;-75
2021/12/27 03:09:43;;;;;;;107.53;39.70;;;6.60;99.90;;;;;;5080193;28;20063;-75
2021/12/27 03:12:12;;;;;;;105.45;40.30;;;6.60;99.90;;;;;;5076768;28;20044;-75
2021/12/27 03:14:38;;;;;;;118.07;39.80;;;6.60;99.90;;;;;;5080044;28;20028;-75
2021/12/27 03:17:04;;;;;;;124.43;42.72;;;6.60;99.90;;;;;;5078188;28;20028;-75
2021/12/27 03:19:30;;;;;;;140.63;43.33;;;6.60;99.90;;;;;;5080810;28;20503;-75
2021/12/27 03:21:56;;;;;;;114.38;40.00;;;6.60;99.90;;;;;;5076234;28;20546;-77
2021/12/27 03:24:22;;;;;;;100.63;39.72;;;6.70;99.90;;;;;;5073261;28;20032;-76
2021/12/27 03:26:48;;;;;;;95.65;37.28;;;6.70;99.90;;;;;;5080256;28;20045;-76
2021/12/27 03:29:14;;;;;;;110.57;40.65;;;6.70;99.90;;;;;;5082025;28;20016;-76
2021/12/27 03:31:40;;;;;;;96.05;38.03;;;6.70;99.90;;;;;;5081526;28;20028;-76
2021/12/27 03:34:06;;;;;;;99.38;36.47;;;6.60;99.90;;;;;;5081052;28;20032;-76
2021/12/27 03:36:38;;;;;;;113.85;40.55;;;6.60;99.90;;;;;;5083345;28;20033;-76
2021/12/27 03:39:07;;;;;;;98.93;36.38;;;6.60;99.90;;;;;;5081487;28;20055;-76
2021/12/27 03:41:33;;;;;;;109.82;37.85;;;6.70;99.90;;;;;;5082748;28;20109;-76
2021/12/27 03:43:59;;;;;;;112.50;40.10;;;6.60;99.90;;;;;;5084384;28;20020;-76
2021/12/27 03:46:25;;;;;;;104.28;39.20;;;6.60;99.90;;;;;;5081723;28;20047;-76
2021/12/27 03:48:51;;;;;;;113.55;39.85;;;6.60;99.90;;;;;;5080901;28;20028;-76
2021/12/27 03:51:16;;;;;;;189.98;47.55;;;6.60;99.90;;;;;;5073919;28;20514;-76
2021/12/27 03:53:42;;;;;;;130.32;41.80;;;6.70;99.90;;;;;;5077407;28;20032;-76
2021/12/27 03:56:08;;;;;;;91.78;35.20;;;6.80;99.90;;;;;;5080881;28;20440;-76
2021/12/27 03:58:46;;;;;;;98.30;38.10;;;6.70;99.90;;;;;;5079480;28;20498;-75
2021/12/27 04:01:21;;;;;;;112.22;40.83;;;6.80;99.90;;;;;;5079017;28;20037;-76
2021/12/27 04:03:50;;;;;;;117.15;37.92;;;6.80;99.90;;;;;;5080719;28;20169;-76
2021/12/27 04:06:17;;;;;;;94.55;37.03;;;6.80;99.90;;;;;;5081918;28;20031;-76
2021/12/27 04:08:44;;;;;;;94.40;37.28;;;6.90;99.90;;;;;;5079986;28;20035;-75
2021/12/27 04:11:09;;;;;;;102.47;38.13;;;6.90;99.90;;;;;;5078878;28;20025;-76
2021/12/27 04:13:36;;;;;;;122.05;39.25;;;6.80;99.90;;;;;;5081032;28;20027;-76
2021/12/27 04:16:02;;;;;;;109.60;36.95;;;6.80;99.90;;;;;;5084729;28;20036;-76
2021/12/27 04:18:28;;;;;;;87.47;36.50;;;6.80;99.90;;;;;;5075436;28;20090;-76
2021/12/27 04:20:54;;;;;;;124.00;39.80;;;6.90;99.90;;;;;;5079280;28;20560;-76
2021/12/27 04:23:20;;;;;;;110.13;37.03;;;6.90;99.90;;;;;;5078695;28;20020;-77
2021/12/27 04:25:46;;;;;;;103.68;35.95;;;6.90;99.90;;;;;;5081089;28;20032;-76
2021/12/27 04:28:12;;;;;;;67.65;30.35;;;7.00;99.90;;;;;;5081769;28;20039;-76
2021/12/27 04:30:38;;;;;;;88.93;35.22;;;7.00;99.90;;;;;;5081066;28;20036;-76
2021/12/27 04:33:04;;;;;;;84.75;33.00;;;6.90;99.90;;;;;;5078797;28;20383;-76
2021/12/27 04:35:30;;;;;;;86.20;33.03;;;7.00;99.90;;;;;;5081216;28;20036;-76
2021/12/27 04:37:57;;;;;;;103.50;35.33;;;6.90;99.90;;;;;;5083553;28;20032;-76
2021/12/27 04:40:26;;;;;;;100.47;36.55;;;6.90;99.90;;;;;;5079585;28;20031;-76
2021/12/27 04:43:02;;;;;;;114.35;37.85;;;6.90;99.90;;;;;;5081240;28;20067;-76
2021/12/27 04:45:28;;;;;;;93.90;37.40;;;6.90;99.90;;;;;;5084530;28;20024;-76
2021/12/27 04:47:53;;;;;;;102.80;37.13;;;6.90;99.90;;;;;;5085851;28;20353;-76
2021/12/27 04:50:21;;;;;;;97.70;36.10;;;6.90;99.90;;;;;;5084458;28;20108;-76
2021/12/27 04:52:47;;;;;;;107.30;38.35;;;6.90;99.90;;;;;;5084179;28;20028;-77
2021/12/27 04:55:13;;;;;;;80.53;32.92;;;6.90;99.90;;;;;;5083402;28;20130;-77
2021/12/27 04:57:38;;;;;;;101.88;35.25;;;6.90;99.90;;;;;;5084389;28;20027;-76
2021/12/27 05:00:06;;;;;;;81.30;30.98;;;6.90;99.90;;;;;;5079120;28;20101;-76
2021/12/27 05:02:31;;;;;;;88.85;32.85;;;6.90;99.90;;;;;;5082520;28;20020;-76
2021/12/27 05:04:57;;;;;;;87.72;32.95;;;6.90;99.90;;;;;;5082243;28;20471;-76
2021/12/27 05:07:23;;;;;;;82.68;31.38;;;6.90;99.90;;;;;;5086087;28;20024;-76
2021/12/27 05:09:48;;;;;;;82.32;32.95;;;7.00;99.90;;;;;;5083366;28;20021;-76
2021/12/27 05:12:14;;;;;;;67.80;29.45;;;6.90;99.90;;;;;;5085296;28;20096;-76
2021/12/27 05:14:40;;;;;;;69.75;29.95;;;6.90;99.90;;;;;;5083599;28;20028;-76
2021/12/27 05:17:05;;;;;;;85.63;34.22;;;7.00;99.90;;;;;;5082425;28;20028;-76
2021/12/27 05:19:31;;;;;;;84.03;31.75;;;7.00;99.90;;;;;;5080412;28;20483;-76
2021/12/27 05:21:57;;;;;;;83.70;33.55;;;7.00;99.90;;;;;;5085139;28;20066;-76
2021/12/27 05:24:23;;;;;;;105.85;35.88;;;7.00;99.90;;;;;;5081848;28;20016;-76
2021/12/27 05:26:49;;;;;;;138.07;39.40;;;7.00;99.90;;;;;;5081697;28;20077;-76
2021/12/27 05:29:17;;;;;;;98.95;34.17;;;7.00;99.90;;;;;;5084522;28;20027;-76
2021/12/27 05:31:43;;;;;;;82.15;33.10;;;7.00;99.90;;;;;;5080394;28;20648;-77
2021/12/27 05:34:10;;;;;;;78.93;32.10;;;7.00;99.90;;;;;;5081588;28;20042;-76
2021/12/27 05:36:36;;;;;;;83.82;33.60;;;7.00;99.90;;;;;;5081977;28;20032;-76
2021/12/27 05:39:03;;;;;;;93.45;33.40;;;6.90;99.90;;;;;;5079790;28;20025;-76
2021/12/27 05:41:28;;;;;;;91.00;32.50;;;6.90;99.90;;;;;;5078114;28;20025;-76
2021/12/27 05:43:54;;;;;;;94.25;34.58;;;6.90;99.90;;;;;;5080936;28;20028;-76
2021/12/27 05:46:20;;;;;;;83.57;33.78;;;6.90;99.90;;;;;;5079298;28;20025;-77
2021/12/27 05:48:45;;;;;;;78.05;30.50;;;7.00;99.90;;;;;;5081035;28;20432;-76
2021/12/27 05:51:11;;;;;;;106.03;34.95;;;7.00;99.90;;;;;;5077299;28;20021;-76
2021/12/27 05:53:36;;;;;;;83.15;32.40;;;7.00;99.90;;;;;;5081354;28;20042;-76
2021/12/27 05:56:03;;;;;;;112.60;36.00;;;7.10;99.90;;;;;;5076729;28;20032;-76
2021/12/27 05:58:28;;;;;;;134.15;36.85;;;7.10;99.90;;;;;;5078012;28;20086;-76
2021/12/27 06:00:54;;;;;;;264.17;49.85;;;7.10;99.90;;;;;;5077903;28;20492;-76
2021/12/27 06:03:20;;;;;;;98.88;34.35;;;7.10;99.90;;;;;;5078842;28;20036;-76
2021/12/27 06:05:46;;;;;;;100.43;35.47;;;7.10;99.90;;;;;;5077704;28;20027;-76
2021/12/27 06:08:12;;;;;;;114.85;34.28;;;7.20;99.90;;;;;;5081571;28;20016;-76
2021/12/27 06:10:38;;;;;;;108.78;35.10;;;7.10;99.90;;;;;;5082379;28;20032;-76
2021/12/27 06:13:04;;;;;;;98.15;33.70;;;7.10;99.90;;;;;;5084669;28;20032;-76
2021/12/27 06:15:29;;;;;;;116.55;36.00;;;7.00;99.90;;;;;;5084275;28;20071;-76
2021/12/27 06:17:55;;;;;;;82.90;32.63;;;7.10;99.90;;;;;;5078585;28;20587;-77
2021/12/27 06:20:21;;;;;;;90.03;31.48;;;7.10;99.90;;;;;;5077103;28;20031;-76
2021/12/27 06:22:51;;;;;;;201.63;45.30;;;7.10;99.90;;;;;;5082120;28;20393;-77
2021/12/27 06:25:17;;;;;;;76.07;32.13;;;7.10;99.90;;;;;;5079477;28;20476;-76
2021/12/27 06:27:43;;;;;;;115.00;36.35;;;7.20;99.90;;;;;;5082170;28;20062;-76
2021/12/27 06:30:11;;;;;;;100.30;33.22;;;7.20;99.90;;;;;;5078336;28;20490;-76
2021/12/27 06:32:37;;;;;;;84.82;32.45;;;7.10;99.90;;;;;;5076044;28;20362;-76
2021/12/27 06:35:05;;;;;;;82.90;32.40;;;7.20;99.90;;;;;;5077463;28;20066;-76
2021/12/27 06:37:31;;;;;;;124.47;37.42;;;7.10;99.90;;;;;;5079535;28;20463;-76
2021/12/27 06:39:57;;;;;;;103.93;36.08;;;7.10;99.90;;;;;;5079985;28;20035;-76
2021/12/27 06:42:23;;;;;;;68.30;30.20;;;7.10;99.90;;;;;;5079474;28;20028;-76
2021/12/27 06:44:48;;;;;;;74.25;29.02;;;7.20;99.90;;;;;;5081687;28;20017;-76
2021/12/27 06:47:14;;;;;;;76.53;29.95;;;7.20;99.90;;;;;;5083048;28;20036;-77
2021/12/27 06:49:42;;;;;;;88.47;29.98;;;7.20;99.90;;;;;;5080416;28;20372;-77
2021/12/27 06:52:08;;;;;;;119.13;33.65;;;7.10;99.90;;;;;;5081054;28;20023;-76
2021/12/27 06:54:34;;;;;;;72.80;28.60;;;7.10;99.90;;;;;;5081581;28;20020;-76
2021/12/27 06:57:01;;;;;;;78.85;31.88;;;7.10;99.90;;;;;;5077798;28;20028;-76
2021/12/27 06:59:28;;;;;;;79.40;31.65;;;7.10;99.90;;;;;;5080087;28;20017;-76
2021/12/27 07:01:54;;;;;;;72.07;28.80;;;7.10;99.90;;;;;;5077078;28;20038;-77
2021/12/27 07:04:20;;;;;;;102.22;33.75;;;7.20;99.90;;;;;;5081567;28;20051;-76
2021/12/27 07:06:46;;;;;;;98.82;33.85;;;7.10;99.90;;;;;;5079408;28;20059;-77
2021/12/27 07:09:12;;;;;;;75.10;28.50;;;7.10;99.90;;;;;;5079907;28;20103;-77
2021/12/27 07:11:38;;;;;;;83.63;30.92;;;7.00;99.90;;;;;;5080044;28;20446;-77
2021/12/27 07:14:05;;;;;;;83.90;29.45;;;7.00;99.90;;;;;;5080584;28;20036;-77
2021/12/27 07:16:31;;;;;;;92.18;29.58;;;6.90;99.90;;;;;;5079515;28;20052;-76
2021/12/27 07:18:57;;;;;;;99.10;30.42;;;6.90;99.90;;;;;;5080935;28;20029;-76
2021/12/27 07:21:22;;;;;;;158.15;35.28;;;6.90;99.90;;;;;;5082257;28;20020;-76
2021/12/27 07:23:48;;;;;;;93.65;29.55;;;6.90;99.90;;;;;;5079981;28;20055;-76
2021/12/27 07:26:14;;;;;;;127.05;32.72;;;6.90;99.90;;;;;;5074863;28;20129;-77
2021/12/27 07:28:40;;;;;;;248.85;38.70;;;6.80;99.90;;;;;;5076393;28;20032;-76
2021/12/27 07:31:07;;;;;;;113.70;33.13;;;6.80;99.90;;;;;;5082667;28;20032;-76
2021/12/27 07:33:33;;;;;;;23.17;14.10;;;6.80;99.90;;;;;;5084430;28;20036;-72
2021/12/27 07:36:02;;;;;;;80.50;29.02;;;6.80;99.90;;;;;;5081075;28;20119;-76
2021/12/27 07:38:27;;;;;;;184.55;33.13;;;6.90;99.90;;;;;;5087010;28;20027;-76
2021/12/27 07:40:53;;;;;;;207.52;32.20;;;6.90;99.90;;;;;;5081915;28;20479;-76
2021/12/27 07:43:19;;;;;;;58.95;24.05;;;6.80;99.90;;;;;;5082560;28;20016;-77
2021/12/27 07:45:44;;;;;;;78.57;26.88;;;6.70;99.90;;;;;;5080293;28;20028;-76
2021/12/27 07:48:10;;;;;;;90.15;28.23;;;6.70;99.90;;;;;;5080561;28;20020;-76
2021/12/27 07:50:37;;;;;;;76.55;26.27;;;6.70;99.90;;;;;;5087237;28;20369;-76
2021/12/27 07:53:04;;;;;;;94.32;29.38;;;6.60;99.90;;;;;;5076061;28;20032;-76
2021/12/27 07:55:31;;;;;;;87.60;29.58;;;6.70;99.90;;;;;;5090448;28;20032;-76
2021/12/27 07:57:58;;;;;;;83.05;29.27;;;6.60;99.90;;;;;;5086390;28;20032;-76
2021/12/27 08:00:24;;;;;;;113.22;34.85;;;6.60;99.90;;;;;;5079111;28;20039;-76
2021/12/27 08:02:50;;;;;;;92.40;34.50;;;6.60;99.90;;;;;;5082209;28;20024;-75
2021/12/27 08:05:16;;;;;;;89.82;31.83;;;6.60;99.90;;;;;;5088123;28;20090;-76
2021/12/27 08:07:42;;;;;;;72.93;28.67;;;6.70;99.90;;;;;;5077462;28;20035;-76
2021/12/27 08:10:10;;;;;;;65.22;26.38;;;6.70;99.90;;;;;;5081870;28;20032;-76
2021/12/27 08:12:36;;;;;;;72.40;26.58;;;6.70;99.90;;;;;;5083605;28;20060;-76
2021/12/27 08:15:03;;;;;;;75.78;28.05;;;6.70;99.90;;;;;;5084485;28;20044;-76
2021/12/27 08:17:29;;;;;;;58.60;23.63;;;6.80;99.90;;;;;;5086161;28;20483;-76
2021/12/27 08:19:55;;;;;;;79.45;27.70;;;6.70;99.90;;;;;;5091532;28;20106;-78
2021/12/27 08:22:20;;;;;;;45.50;21.75;;;6.60;99.90;;;;;;5084983;28;20100;-78
2021/12/27 08:24:46;;;;;;;85.35;27.30;;;6.70;99.90;;;;;;5080118;28;20033;-79
2021/12/27 08:27:12;;;;;;;56.30;23.90;;;6.70;99.90;;;;;;5084806;28;20476;-78
2021/12/27 08:29:37;;;;;;;71.82;25.02;;;6.70;99.90;;;;;;5090594;28;20340;-78
2021/12/27 08:32:03;;;;;;;55.15;22.85;;;6.70;99.90;;;;;;5080154;28;20586;-78
2021/12/27 08:34:31;;;;;;;52.30;21.80;;;6.60;99.90;;;;;;5085415;28;20400;-79
2021/12/27 08:36:57;;;;;;;46.03;21.92;;;6.60;99.90;;;;;;5085271;28;20130;-79
2021/12/27 08:39:23;;;;;;;57.95;25.23;;;6.60;99.90;;;;;;5082273;28;20578;-79
2021/12/27 08:41:48;;;;;;;50.83;22.70;;;6.70;99.90;;;;;;5087254;28;20153;-79
2021/12/27 08:44:14;;;;;;;46.65;22.20;;;6.70;99.90;;;;;;5087324;28;20028;-80
2021/12/27 08:46:40;;;;;;;57.60;23.70;;;6.70;99.90;;;;;;5088988;28;20032;-79
2021/12/27 08:49:06;;;;;;;55.47;24.20;;;6.70;99.90;;;;;;5081639;28;20032;-79
2021/12/27 08:51:32;;;;;;;54.08;24.38;;;6.80;99.90;;;;;;5079588;28;20541;-80
2021/12/27 08:53:58;;;;;;;59.97;24.45;;;6.80;99.90;;;;;;5083393;28;20060;-80
2021/12/27 08:56:24;;;;;;;49.05;22.30;;;6.90;99.90;;;;;;5080281;28;20469;-80
2021/12/27 08:58:50;;;;;;;46.00;22.00;;;6.80;99.90;;;;;;5081006;28;20108;-80
2021/12/27 09:01:15;;;;;;;39.85;20.25;;;7.00;99.90;;;;;;5081952;28;20121;-80
2021/12/27 09:03:41;;;;;;;49.33;22.58;;;7.00;99.90;;;;;;5080642;28;20047;-79
2021/12/27 09:06:07;;;;;;;45.38;21.55;;;7.10;99.90;;;;;;5083732;28;20032;-79
2021/12/27 09:08:32;;;;;;;57.30;22.90;;;7.10;99.90;;;;;;5083938;28;20111;-79
2021/12/27 09:10:58;;;;;;;50.40;21.77;;;7.10;99.90;;;;;;5081425;28;20029;-77
2021/12/27 09:13:27;;;;;;;54.88;23.75;;;7.00;99.90;;;;;;5080477;28;20077;-78
2021/12/27 09:15:53;;;;;;;54.08;23.52;;;7.10;99.90;;;;;;5083034;28;20028;-78
2021/12/27 09:18:18;;;;;;;46.63;21.35;;;7.10;99.90;;;;;;5085726;28;20042;-78
2021/12/27 09:20:44;;;;;;;41.58;20.38;;;7.10;99.90;;;;;;5080688;28;20028;-78
2021/12/27 09:23:10;;;;;;;51.28;22.92;;;7.20;99.90;;;;;;5080762;28;20564;-78
2021/12/27 09:25:36;;;;;;;51.15;21.60;;;7.20;99.90;;;;;;5084359;28;20021;-78
2021/12/27 09:28:02;;;;;;;48.05;22.08;;;7.30;99.90;;;;;;5080285;28;20051;-78
2021/12/27 09:30:27;;;;;;;42.45;20.98;;;7.30;99.90;;;;;;5079321;28;20044;-78
2021/12/27 09:32:53;;;;;;;47.80;21.25;;;7.30;99.90;;;;;;5081971;28;20016;-78
2021/12/27 09:35:19;;;;;;;38.97;20.67;;;7.40;99.90;;;;;;5083470;28;20032;-78
2021/12/27 09:37:45;;;;;;;39.47;20.02;;;7.40;99.90;;;;;;5083840;28;20028;-78
2021/12/27 09:40:11;;;;;;;41.55;21.02;;;7.30;99.90;;;;;;5086481;28;20032;-77
2021/12/27 09:42:37;;;;;;;34.00;18.10;;;7.30;99.90;;;;;;5082447;28;20107;-78
2021/12/27 09:45:05;;;;;;;42.30;20.92;;;7.40;99.90;;;;;;5084812;28;20108;-78
2021/12/27 09:47:32;;;;;;;44.30;21.33;;;7.50;99.90;;;;;;5081775;28;20025;-78
2021/12/27 09:49:58;;;;;;;44.35;21.60;;;7.50;99.90;;;;;;5088257;28;20082;-77
2021/12/27 09:52:24;;;;;;;40.85;21.42;;;7.50;99.90;;;;;;5083270;28;20032;-77
2021/12/27 09:54:50;;;;;;;45.22;22.58;;;7.60;99.90;;;;;;5079806;28;20434;-76
2021/12/27 09:57:15;;;;;;;35.28;19.67;;;7.50;99.90;;;;;;5081497;28;20517;-76
2021/12/27 09:59:42;;;;;;;37.83;21.63;;;7.60;99.90;;;;;;5086069;28;20447;-77
2021/12/27 10:02:08;;;;;;;36.03;20.08;;;7.70;99.90;;;;;;5078861;28;20028;-78
2021/12/27 10:04:33;;;;;;;36.75;17.83;;;7.70;99.90;;;;;;5087691;28;20119;-77
2021/12/27 10:06:59;;;;;;;31.27;17.85;;;7.70;99.90;;;;;;5085024;28;20103;-76
2021/12/27 10:09:24;;;;;;;30.75;16.48;;;7.70;99.90;;;;;;5094672;28;20024;-76
2021/12/27 10:11:50;;;;;;;28.80;16.83;;;7.90;99.90;;;;;;5080642;28;20544;-76
2021/12/27 10:14:18;;;;;;;29.52;16.48;;;7.90;99.90;;;;;;5083424;28;20024;-76
2021/12/27 10:17:04;;;;;;;33.85;17.00;;;8.00;99.90;;;;;;5082514;28;20032;-76
2021/12/27 10:19:33;;;;;;;29.35;16.08;;;8.00;99.90;;;;;;5081354;28;20063;-76
2021/12/27 10:21:58;;;;;;;31.50;17.35;;;8.00;99.90;;;;;;5081379;28;20507;-76
2021/12/27 10:24:28;;;;;;;27.73;16.80;;;8.00;99.90;;;;;;5089998;28;20023;-75
2021/12/27 10:26:57;;;;;;;25.98;14.63;;;8.00;99.90;;;;;;5084122;28;20028;-76
2021/12/27 10:29:26;;;;;;;25.88;14.95;;;8.00;99.90;;;;;;5074595;28;20029;-76
2021/12/27 10:32:07;;;;;;;25.67;15.43;;;8.10;99.90;;;;;;5077728;28;20480;-76
2021/12/27 10:34:38;;;;;;;23.85;14.35;;;8.10;99.90;;;;;;5080538;28;20969;-76
2021/12/27 10:37:09;;;;;;;25.53;15.37;;;8.10;99.90;;;;;;5083271;28;20095;-76
2021/12/27 10:39:48;;;;;;;23.98;13.68;;;8.10;99.90;;;;;;5080359;28;20266;-75
2021/12/27 10:42:18;;;;;;;26.02;14.10;;;8.10;99.90;;;;;;5080858;28;20032;-76
2021/12/27 10:44:44;;;;;;;28.98;16.17;;;8.10;99.90;;;;;;5080687;28;20073;-76
2021/12/27 10:47:32;;;;;;;31.95;16.58;;;8.10;99.90;;;;;;5080966;28;20384;-76
2021/12/27 10:50:03;;;;;;;28.75;15.00;;;8.20;99.90;;;;;;5078549;28;20099;-76
2021/12/27 10:52:47;;;;;;;27.13;14.77;;;8.20;99.90;;;;;;5079089;28;20031;-76
2021/12/27 10:55:17;;;;;;;27.73;16.55;;;8.20;99.90;;;;;;5081377;28;20476;-75
2021/12/27 10:57:43;;;;;;;25.02;14.98;;;8.30;99.90;;;;;;5083007;28;20419;-75
2021/12/27 11:00:23;;;;;;;28.38;16.25;;;8.20;99.90;;;;;;5078790;28;20032;-76
2021/12/27 11:02:49;;;;;;;29.63;14.77;;;8.20;99.90;;;;;;5088158;28;20032;-75
2021/12/27 11:05:26;;;;;;;25.95;15.00;;;8.20;99.90;;;;;;5086593;28;20438;-76
2021/12/27 11:07:54;;;;;;;24.10;14.02;;;8.30;99.90;;;;;;5083139;28;20029;-75
2021/12/27 11:10:21;;;;;;;29.85;15.40;;;8.30;99.90;;;;;;5087871;28;20076;-75
2021/12/27 11:12:49;;;;;;;26.42;15.25;;;8.30;99.90;;;;;;5085540;28;20028;-75
2021/12/27 11:15:14;;;;;;;26.83;15.35;;;8.30;99.90;;;;;;5086862;28;20031;-75
2021/12/27 11:17:40;;;;;;;30.25;15.40;;;8.30;99.90;;;;;;5083148;28;20020;-75
2021/12/27 11:20:08;;;;;;;24.98;15.02;;;8.40;99.90;;;;;;5083079;28;20028;-75
2021/12/27 11:22:43;;;;;;;32.00;15.60;;;8.40;99.90;;;;;;5079146;28;20032;-75
2021/12/27 11:25:31;;;;;;;32.03;15.32;;;8.50;99.90;;;;;;5081816;28;20032;-76
2021/12/27 11:27:58;;;;;;;25.33;15.48;;;8.50;99.90;;;;;;5082805;28;20387;-76
2021/12/27 11:30:26;;;;;;;26.20;15.88;;;8.50;99.90;;;;;;5076722;28;20047;-76
2021/12/27 11:33:06;;;;;;;27.90;16.92;;;8.50;99.90;;;;;;5082995;28;20024;-76
2021/12/27 11:35:40;;;;;;;29.38;17.20;;;8.60;99.90;;;;;;5083040;28;20115;-76
2021/12/27 11:38:06;;;;;;;29.17;15.63;;;8.70;99.90;;;;;;5078865;28;20089;-76
2021/12/27 11:40:46;;;;;;;30.67;16.58;;;8.70;99.90;;;;;;5083850;28;20085;-76
2021/12/27 11:43:12;;;;;;;33.85;18.63;;;8.70;99.90;;;;;;5080955;28;20050;-76
2021/12/27 11:45:45;;;;;;;28.38;18.55;;;8.70;99.90;;;;;;5080577;28;20365;-75
2021/12/27 11:48:15;;;;;;;28.27;17.67;;;8.80;99.90;;;;;;5089914;28;20016;-75
2021/12/27 11:50:59;;;;;;;26.88;15.68;;;8.90;99.90;;;;;;5084400;28;20032;-75
2021/12/27 11:53:35;;;;;;;21.52;14.90;;;8.90;99.90;;;;;;5089452;28;20149;-75
2021/12/27 11:56:08;;;;;;;25.38;15.75;;;8.90;99.90;;;;;;5085950;28;20032;-75
2021/12/27 11:58:39;;;;;;;30.45;17.67;;;8.90;99.90;;;;;;5092385;28;20046;-75
2021/12/27 12:01:26;;;;;;;25.90;17.73;;;9.00;99.90;;;;;;5086236;28;20028;-75
2021/12/27 12:03:55;;;;;;;24.95;14.63;;;9.00;99.90;;;;;;5084029;28;20493;-75
2021/12/27 12:06:42;;;;;;;25.10;14.93;;;9.00;99.90;;;;;;5086889;28;20036;-75
2021/12/27 12:09:17;;;;;;;26.48;16.75;;;9.10;99.90;;;;;;5088936;28;20417;-76
2021/12/27 12:11:45;;;;;;;22.73;15.35;;;9.10;99.90;;;;;;5092621;28;20028;-76
2021/12/27 12:14:24;;;;;;;22.48;14.50;;;9.10;99.90;;;;;;5085928;28;20099;-75
2021/12/27 12:16:50;;;;;;;23.33;14.73;;;9.10;99.90;;;;;;5086143;28;20025;-75
2021/12/27 12:19:16;;;;;;;23.52;16.15;;;9.10;99.90;;;;;;5090006;28;20146;-76
2021/12/27 12:21:44;;;;;;;22.30;15.13;;;9.10;99.90;;;;;;5075820;28;20097;-75
2021/12/27 12:24:12;;;;;;;24.20;15.10;;;9.10;99.90;;;;;;5080141;28;20370;-75
2021/12/27 12:27:02;;;;;;;20.27;14.10;;;9.20;99.90;;;;;;5083557;28;20032;-75
2021/12/27 12:29:29;;;;;;;24.15;15.50;;;9.20;99.90;;;;;;5081957;28;20587;-76
2021/12/27 12:32:01;;;;;;;22.40;14.73;;;9.30;99.90;;;;;;5083616;28;20429;-75
2021/12/27 12:34:27;;;;;;;22.43;14.37;;;9.40;99.90;;;;;;5089264;28;20040;-75
2021/12/27 12:36:52;;;;;;;22.45;13.70;;;9.40;99.90;;;;;;5086217;28;20036;-75
2021/12/27 12:39:23;;;;;;;23.10;15.07;;;9.40;99.90;;;;;;5082680;28;20138;-75